SWA585 KELP-KLAX
Flight info
| Callsign | SWA585 |
|---|---|
| Flight time | N/A |
| Altitude | 38000 |
| Route | ATKNN5 FLOGS SSO J4 WLVRN ESTWD HLYWD1 |
| Aircraft | B738/M-SDE2E3FGHIRWXY/LB1 |
Departure
| Time | 2026-04-21 21:05 |
|---|---|
| Airport | El Paso International Airport (KELP) |
Arrival
| Time | N/A |
|---|---|
| Airport | Los Angeles International Airport (KLAX) |
| Time | Latitude | Longitude | Altitude | Speed | Heading |
|---|---|---|---|---|---|
| 2026-04-21 20:51 | 31.80080 | -106.39526 | 3960 ft | 3 kts | 216° |
| 2026-04-21 20:51 | 31.80096 | -106.39513 | 3960 ft | 3 kts | 212° |
| 2026-04-21 20:51 | 31.80114 | -106.39501 | 3961 ft | 3 kts | 207° |
| 2026-04-21 20:52 | 31.80125 | -106.39494 | 3961 ft | 1 kts | 204° |
| 2026-04-21 20:52 | 31.80140 | -106.39488 | 3961 ft | 3 kts | 177° |
| 2026-04-21 20:52 | 31.80151 | -106.39489 | 3961 ft | 4 kts | 105° |
| 2026-04-21 20:52 | 31.80152 | -106.39511 | 3962 ft | 4 kts | 81° |
| 2026-04-21 20:53 | 31.80151 | -106.39516 | 3962 ft | 3 kts | 81° |
| 2026-04-21 20:56 | 31.80149 | -106.39503 | 3962 ft | 4 kts | 101° |
| 2026-04-21 20:56 | 31.80144 | -106.39465 | 3966 ft | 0 kts | 94° |
| 2026-04-21 20:57 | 31.80143 | -106.39435 | 3953 ft | 11 kts | 94° |
| 2026-04-21 20:57 | 31.80188 | -106.39362 | 3955 ft | 10 kts | 33° |
| 2026-04-21 20:57 | 31.80251 | -106.39303 | 3955 ft | 12 kts | 42° |
| 2026-04-21 20:58 | 31.80308 | -106.39240 | 3953 ft | 13 kts | 43° |
| 2026-04-21 20:58 | 31.80380 | -106.39163 | 3949 ft | 14 kts | 44° |
| 2026-04-21 20:58 | 31.80427 | -106.39110 | 3948 ft | 10 kts | 43° |
| 2026-04-21 20:58 | 31.80480 | -106.39052 | 3949 ft | 10 kts | 43° |
| 2026-04-21 20:59 | 31.80535 | -106.38992 | 3950 ft | 12 kts | 43° |
| 2026-04-21 20:59 | 31.80625 | -106.38892 | 3950 ft | 23 kts | 43° |
| 2026-04-21 20:59 | 31.80715 | -106.38794 | 3953 ft | 16 kts | 43° |
| 2026-04-21 20:59 | 31.80808 | -106.38692 | 3954 ft | 21 kts | 42° |
| 2026-04-21 21:00 | 31.80912 | -106.38555 | 3955 ft | 18 kts | 50° |
| 2026-04-21 21:00 | 31.80989 | -106.38447 | 3954 ft | 19 kts | 50° |
| 2026-04-21 21:00 | 31.81085 | -106.38314 | 3951 ft | 23 kts | 50° |
| 2026-04-21 21:00 | 31.81196 | -106.38158 | 3947 ft | 26 kts | 51° |
| 2026-04-21 21:01 | 31.81312 | -106.37997 | 3945 ft | 24 kts | 49° |
| 2026-04-21 21:01 | 31.81421 | -106.37845 | 3943 ft | 23 kts | 50° |
| 2026-04-21 21:01 | 31.81518 | -106.37709 | 3946 ft | 20 kts | 50° |
| 2026-04-21 21:01 | 31.81612 | -106.37578 | 3944 ft | 22 kts | 50° |
| 2026-04-21 21:02 | 31.81707 | -106.37444 | 3944 ft | 18 kts | 50° |
| 2026-04-21 21:02 | 31.81782 | -106.37340 | 3940 ft | 18 kts | 49° |
| 2026-04-21 21:02 | 31.81873 | -106.37213 | 3938 ft | 22 kts | 50° |
| 2026-04-21 21:02 | 31.81964 | -106.37084 | 3935 ft | 18 kts | 51° |
| 2026-04-21 21:03 | 31.82053 | -106.36962 | 3934 ft | 21 kts | 49° |
| 2026-04-21 21:03 | 31.82148 | -106.36887 | 3934 ft | 16 kts | 342° |
| 2026-04-21 21:03 | 31.82238 | -106.36976 | 3933 ft | 18 kts | 306° |
| 2026-04-21 21:03 | 31.82242 | -106.37084 | 3933 ft | 2 kts | 228° |
| 2026-04-21 21:04 | 31.82224 | -106.37109 | 3933 ft | 6 kts | 228° |
| 2026-04-21 21:04 | 31.82082 | -106.37304 | 3936 ft | 61 kts | 230° |
| 2026-04-21 21:04 | 31.81680 | -106.37861 | 3947 ft | 115 kts | 230° |
| 2026-04-21 21:04 | 31.81067 | -106.38711 | 3962 ft | 159 kts | 229° |
| 2026-04-21 21:05 | 31.80292 | -106.39767 | 4289 ft | 177 kts | 232° |
| 2026-04-21 21:05 | 31.79472 | -106.40983 | 4468 ft | 208 kts | 230° |
| 2026-04-21 21:05 | 31.78376 | -106.42072 | 5148 ft | 204 kts | 219° |
| 2026-04-21 21:05 | 31.77241 | -106.43138 | 5497 ft | 219 kts | 224° |
| 2026-04-21 21:06 | 31.76462 | -106.44682 | 5793 ft | 234 kts | 259° |
| 2026-04-21 21:06 | 31.76172 | -106.46646 | 6067 ft | 255 kts | 258° |
| 2026-04-21 21:06 | 31.75860 | -106.48760 | 6450 ft | 268 kts | 272° |
| 2026-04-21 21:06 | 31.76368 | -106.50877 | 7043 ft | 272 kts | 294° |
| 2026-04-21 21:07 | 31.77349 | -106.52792 | 7694 ft | 277 kts | 302° |
| 2026-04-21 21:07 | 31.78459 | -106.54639 | 8278 ft | 280 kts | 304° |
| 2026-04-21 21:07 | 31.79591 | -106.56527 | 8927 ft | 286 kts | 303° |
| 2026-04-21 21:07 | 31.80681 | -106.58500 | 9598 ft | 287 kts | 292° |
| 2026-04-21 21:08 | 31.81235 | -106.60722 | 10336 ft | 285 kts | 280° |
| 2026-04-21 21:08 | 31.81650 | -106.63084 | 10531 ft | 306 kts | 280° |
| 2026-04-21 21:08 | 31.82089 | -106.65624 | 10694 ft | 326 kts | 280° |
| 2026-04-21 21:08 | 31.82562 | -106.68312 | 10907 ft | 342 kts | 281° |
| 2026-04-21 21:09 | 31.83059 | -106.71077 | 11437 ft | 347 kts | 281° |
| 2026-04-21 21:09 | 31.83565 | -106.73852 | 12147 ft | 346 kts | 281° |
| 2026-04-21 21:09 | 31.84074 | -106.76631 | 12797 ft | 350 kts | 281° |
| 2026-04-21 21:09 | 31.84588 | -106.79440 | 13418 ft | 353 kts | 281° |
| 2026-04-21 21:10 | 31.85108 | -106.82287 | 14036 ft | 357 kts | 281° |
| 2026-04-21 21:10 | 31.85632 | -106.85163 | 14593 ft | 361 kts | 281° |
| 2026-04-21 21:10 | 31.86158 | -106.88060 | 15060 ft | 363 kts | 280° |
| 2026-04-21 21:10 | 31.86686 | -106.90973 | 15705 ft | 366 kts | 280° |
| 2026-04-21 21:11 | 31.87211 | -106.93878 | 16281 ft | 370 kts | 281° |
| 2026-04-21 21:11 | 31.87750 | -106.96861 | 16829 ft | 375 kts | 281° |
| 2026-04-21 21:11 | 31.88293 | -106.99870 | 17457 ft | 377 kts | 281° |
| 2026-04-21 21:11 | 31.88841 | -107.02914 | 17987 ft | 383 kts | 281° |
| 2026-04-21 21:12 | 31.89396 | -107.05997 | 18561 ft | 385 kts | 280° |
| 2026-04-21 21:12 | 31.89951 | -107.09081 | 19115 ft | 387 kts | 281° |
| 2026-04-21 21:12 | 31.90511 | -107.12203 | 19601 ft | 391 kts | 281° |
| 2026-04-21 21:12 | 31.91074 | -107.15338 | 20187 ft | 392 kts | 281° |
| 2026-04-21 21:13 | 31.91639 | -107.18497 | 20711 ft | 394 kts | 281° |
| 2026-04-21 21:13 | 31.92205 | -107.21662 | 21215 ft | 397 kts | 281° |
| 2026-04-21 21:13 | 31.92767 | -107.24807 | 21743 ft | 399 kts | 281° |
| 2026-04-21 21:13 | 31.93338 | -107.28012 | 22248 ft | 401 kts | 281° |
| 2026-04-21 21:14 | 31.93918 | -107.31274 | 22763 ft | 403 kts | 281° |
| 2026-04-21 21:14 | 31.94494 | -107.34517 | 23241 ft | 405 kts | 281° |
| 2026-04-21 21:14 | 31.95064 | -107.37734 | 23683 ft | 408 kts | 281° |
| 2026-04-21 21:14 | 31.95652 | -107.41054 | 24085 ft | 410 kts | 281° |
| 2026-04-21 21:15 | 31.96226 | -107.44301 | 24471 ft | 412 kts | 281° |
| 2026-04-21 21:15 | 31.96810 | -107.47610 | 24849 ft | 414 kts | 281° |
| 2026-04-21 21:15 | 31.97397 | -107.50942 | 25250 ft | 416 kts | 281° |
| 2026-04-21 21:15 | 31.97986 | -107.54288 | 25647 ft | 418 kts | 281° |
| 2026-04-21 21:16 | 31.98576 | -107.57643 | 26036 ft | 420 kts | 281° |
| 2026-04-21 21:16 | 31.99169 | -107.61026 | 26413 ft | 422 kts | 281° |
| 2026-04-21 21:16 | 31.99763 | -107.64420 | 26774 ft | 424 kts | 281° |
| 2026-04-21 21:16 | 32.00359 | -107.67830 | 27156 ft | 425 kts | 281° |
| 2026-04-21 21:17 | 32.00957 | -107.71255 | 27498 ft | 427 kts | 281° |
| 2026-04-21 21:17 | 32.01556 | -107.74694 | 27844 ft | 430 kts | 281° |
| 2026-04-21 21:17 | 32.02156 | -107.78143 | 28211 ft | 430 kts | 281° |
| 2026-04-21 21:17 | 32.02757 | -107.81605 | 28486 ft | 432 kts | 281° |
| 2026-04-21 21:18 | 32.03359 | -107.85082 | 28800 ft | 434 kts | 281° |
| 2026-04-21 21:18 | 32.03966 | -107.88588 | 29116 ft | 436 kts | 281° |
| 2026-04-21 21:18 | 32.04572 | -107.92096 | 29435 ft | 438 kts | 281° |
| 2026-04-21 21:18 | 32.05172 | -107.95574 | 29735 ft | 440 kts | 281° |
| 2026-04-21 21:19 | 32.05781 | -107.99112 | 30051 ft | 440 kts | 281° |
| 2026-04-21 21:19 | 32.06387 | -108.02641 | 30460 ft | 438 kts | 281° |
| 2026-04-21 21:19 | 32.06989 | -108.06148 | 30862 ft | 436 kts | 281° |
| 2026-04-21 21:19 | 32.07587 | -108.09643 | 31202 ft | 435 kts | 281° |
| 2026-04-21 21:20 | 32.08186 | -108.13147 | 31518 ft | 435 kts | 281° |
| 2026-04-21 21:20 | 32.08783 | -108.16645 | 31877 ft | 434 kts | 281° |
| 2026-04-21 21:20 | 32.09376 | -108.20123 | 32215 ft | 432 kts | 281° |
| 2026-04-21 21:20 | 32.09966 | -108.23595 | 32538 ft | 432 kts | 281° |
| 2026-04-21 21:21 | 32.10554 | -108.27060 | 32860 ft | 431 kts | 280° |
| 2026-04-21 21:21 | 32.11141 | -108.30522 | 33200 ft | 429 kts | 280° |
| 2026-04-21 21:21 | 32.11726 | -108.33982 | 33515 ft | 429 kts | 280° |
| 2026-04-21 21:21 | 32.12301 | -108.37385 | 33831 ft | 428 kts | 280° |
| 2026-04-21 21:22 | 32.12881 | -108.40828 | 34131 ft | 427 kts | 280° |
| 2026-04-21 21:22 | 32.13458 | -108.44257 | 34421 ft | 425 kts | 281° |
| 2026-04-21 21:22 | 32.14031 | -108.47667 | 34827 ft | 421 kts | 281° |
| 2026-04-21 21:22 | 32.14599 | -108.51054 | 35127 ft | 420 kts | 281° |
| 2026-04-21 21:23 | 32.15165 | -108.54435 | 35309 ft | 421 kts | 281° |
| 2026-04-21 21:23 | 32.15732 | -108.57829 | 35511 ft | 421 kts | 281° |
| 2026-04-21 21:23 | 32.16298 | -108.61216 | 35792 ft | 420 kts | 281° |
| 2026-04-21 21:23 | 32.16860 | -108.64591 | 36069 ft | 418 kts | 281° |
| 2026-04-21 21:24 | 32.17419 | -108.67954 | 36294 ft | 418 kts | 281° |
| 2026-04-21 21:24 | 32.17978 | -108.71321 | 36499 ft | 418 kts | 281° |
| 2026-04-21 21:24 | 32.18536 | -108.74689 | 36736 ft | 416 kts | 281° |
| 2026-04-21 21:24 | 32.19083 | -108.77995 | 36833 ft | 415 kts | 281° |
| 2026-04-21 21:25 | 32.19635 | -108.81340 | 37091 ft | 413 kts | 281° |
| 2026-04-21 21:25 | 32.20182 | -108.84661 | 37351 ft | 412 kts | 281° |
| 2026-04-21 21:25 | 32.20728 | -108.87975 | 37550 ft | 411 kts | 281° |
| 2026-04-21 21:25 | 32.21273 | -108.91294 | 37694 ft | 412 kts | 281° |
| 2026-04-21 21:26 | 32.21817 | -108.94610 | 37853 ft | 411 kts | 281° |
| 2026-04-21 21:26 | 32.22362 | -108.97939 | 37947 ft | 413 kts | 281° |
| 2026-04-21 21:26 | 32.23453 | -109.04618 | 37942 ft | 414 kts | 281° |
| 2026-04-21 21:27 | 32.24535 | -109.11265 | 37933 ft | 411 kts | 281° |
| 2026-04-21 21:27 | 32.25604 | -109.17874 | 37942 ft | 408 kts | 281° |
| 2026-04-21 21:28 | 32.26614 | -109.24401 | 37938 ft | 405 kts | 282° |
| 2026-04-21 21:29 | 32.29451 | -109.33745 | 37937 ft | 402 kts | 292° |
| 2026-04-21 21:29 | 32.31623 | -109.39842 | 37952 ft | 402 kts | 292° |
| 2026-04-21 21:30 | 32.33779 | -109.45961 | 37949 ft | 404 kts | 292° |
| 2026-04-21 21:30 | 32.35921 | -109.52089 | 37942 ft | 406 kts | 292° |
| 2026-04-21 21:31 | 32.38076 | -109.58278 | 37948 ft | 408 kts | 292° |
| 2026-04-21 21:31 | 32.40243 | -109.64516 | 37952 ft | 410 kts | 292° |
| 2026-04-21 21:32 | 32.42414 | -109.70779 | 37954 ft | 412 kts | 292° |
| 2026-04-21 21:32 | 32.44590 | -109.77067 | 37952 ft | 413 kts | 292° |
| 2026-04-21 21:33 | 32.46771 | -109.83381 | 37950 ft | 414 kts | 292° |
| 2026-04-21 21:33 | 32.48935 | -109.89661 | 37953 ft | 414 kts | 292° |
| 2026-04-21 21:34 | 32.51106 | -109.95968 | 37978 ft | 412 kts | 292° |
| 2026-04-21 21:34 | 32.53263 | -110.02250 | 37978 ft | 411 kts | 292° |
| 2026-04-21 21:35 | 32.55406 | -110.08503 | 37999 ft | 409 kts | 292° |
| 2026-04-21 21:35 | 32.57540 | -110.14742 | 37993 ft | 407 kts | 292° |
| 2026-04-21 21:36 | 32.59644 | -110.20903 | 38005 ft | 405 kts | 292° |
| 2026-04-21 21:36 | 32.61755 | -110.27098 | 38007 ft | 404 kts | 292° |
| 2026-04-21 21:37 | 32.63870 | -110.33314 | 37997 ft | 408 kts | 292° |
| 2026-04-21 21:37 | 32.65998 | -110.39584 | 37994 ft | 411 kts | 292° |
| 2026-04-21 21:38 | 32.68141 | -110.45911 | 37999 ft | 414 kts | 292° |
| 2026-04-21 21:38 | 32.70269 | -110.52202 | 37974 ft | 410 kts | 292° |
| 2026-04-21 21:39 | 32.72372 | -110.58433 | 37974 ft | 403 kts | 291° |
| 2026-04-21 21:39 | 32.74452 | -110.64610 | 37995 ft | 402 kts | 291° |
| 2026-04-21 21:40 | 32.76526 | -110.70778 | 37980 ft | 401 kts | 291° |
| 2026-04-21 21:40 | 32.78592 | -110.76936 | 37985 ft | 401 kts | 291° |
| 2026-04-21 21:41 | 32.80658 | -110.83102 | 37974 ft | 402 kts | 291° |
| 2026-04-21 21:41 | 32.82726 | -110.89290 | 37994 ft | 404 kts | 291° |
| 2026-04-21 21:42 | 32.84803 | -110.95516 | 37980 ft | 406 kts | 291° |
| 2026-04-21 21:42 | 32.86889 | -111.01782 | 37984 ft | 409 kts | 291° |
| 2026-04-21 21:43 | 32.88988 | -111.08100 | 37980 ft | 411 kts | 291° |
| 2026-04-21 21:43 | 32.90738 | -111.13375 | 37976 ft | 413 kts | 291° |
| 2026-04-21 21:44 | 32.92847 | -111.19753 | 37978 ft | 414 kts | 290° |
| 2026-04-21 21:44 | 32.94961 | -111.26147 | 37966 ft | 414 kts | 290° |
| 2026-04-21 21:45 | 32.97056 | -111.32497 | 37954 ft | 413 kts | 290° |
| 2026-04-21 21:45 | 32.99152 | -111.38865 | 37955 ft | 411 kts | 290° |
| 2026-04-21 21:46 | 33.01231 | -111.45193 | 37949 ft | 409 kts | 290° |
| 2026-04-21 21:46 | 33.03297 | -111.51498 | 37947 ft | 407 kts | 290° |
| 2026-04-21 21:47 | 33.05351 | -111.57776 | 37968 ft | 405 kts | 290° |
| 2026-04-21 21:47 | 33.07377 | -111.63983 | 37979 ft | 404 kts | 290° |
| 2026-04-21 21:48 | 33.09422 | -111.70260 | 37967 ft | 403 kts | 290° |
| 2026-04-21 21:48 | 33.11436 | -111.76454 | 37980 ft | 403 kts | 290° |
| 2026-04-21 21:49 | 33.13463 | -111.82698 | 37993 ft | 404 kts | 289° |
| 2026-04-21 21:49 | 33.15491 | -111.88962 | 37985 ft | 405 kts | 289° |
| 2026-04-21 21:50 | 33.17517 | -111.95230 | 37981 ft | 405 kts | 289° |
| 2026-04-21 21:50 | 33.19541 | -112.01506 | 37965 ft | 405 kts | 289° |
| 2026-04-21 21:51 | 33.21569 | -112.07805 | 37950 ft | 406 kts | 289° |
| 2026-04-21 21:51 | 33.23592 | -112.14101 | 37953 ft | 406 kts | 288° |
| 2026-04-21 21:52 | 33.25612 | -112.20400 | 37950 ft | 406 kts | 288° |
| 2026-04-21 21:52 | 33.27614 | -112.26662 | 37957 ft | 407 kts | 288° |
| 2026-04-21 21:53 | 33.29639 | -112.32988 | 37994 ft | 407 kts | 288° |
| 2026-04-21 21:53 | 33.31654 | -112.39319 | 37976 ft | 406 kts | 288° |
| 2026-04-21 21:54 | 33.33656 | -112.45619 | 37973 ft | 404 kts | 288° |
| 2026-04-21 21:54 | 33.35645 | -112.51888 | 37952 ft | 402 kts | 288° |
| 2026-04-21 21:55 | 33.37624 | -112.58136 | 37987 ft | 400 kts | 288° |
| 2026-04-21 21:55 | 33.39594 | -112.64370 | 37977 ft | 399 kts | 288° |
| 2026-04-21 21:56 | 33.41554 | -112.70583 | 37972 ft | 399 kts | 288° |
| 2026-04-21 21:56 | 33.43504 | -112.76779 | 37982 ft | 399 kts | 288° |
| 2026-04-21 21:57 | 33.45465 | -112.83018 | 37960 ft | 401 kts | 288° |
| 2026-04-21 21:57 | 33.47625 | -112.89201 | 37962 ft | 404 kts | 290° |
| 2026-04-21 21:58 | 33.49895 | -112.95387 | 37953 ft | 406 kts | 290° |
| 2026-04-21 21:58 | 33.52157 | -113.01614 | 37950 ft | 409 kts | 290° |
| 2026-04-21 21:59 | 33.54416 | -113.07904 | 37943 ft | 411 kts | 289° |
| 2026-04-21 21:59 | 33.56659 | -113.14184 | 37936 ft | 413 kts | 289° |
| 2026-04-21 22:00 | 33.58920 | -113.20528 | 37928 ft | 414 kts | 289° |
| 2026-04-21 22:00 | 33.61183 | -113.26891 | 37950 ft | 414 kts | 289° |
| 2026-04-21 22:01 | 33.63436 | -113.33240 | 37939 ft | 413 kts | 289° |
| 2026-04-21 22:01 | 33.65681 | -113.39574 | 37930 ft | 412 kts | 289° |
| 2026-04-21 22:02 | 33.67915 | -113.45893 | 38133 ft | 410 kts | 289° |
| 2026-04-21 22:02 | 33.70135 | -113.52186 | 38147 ft | 409 kts | 289° |
| 2026-04-21 22:03 | 33.72332 | -113.58425 | 38130 ft | 407 kts | 289° |